Time;durP1;ratioP1;P1;durP2;ratioP2;P2;SDS_P1;SDS_P2;PMS_P1;PMS_P2;Temp;Humidity;BMP_temperature;BMP_pressure;BME280_temperature;BME280_humidity;BME280_pressure;Samples;Min_cycle;Max_cycle;Signal;HPM_P1;HPM_P2
2021/06/16 00:02:18;;;;;;;14.70;8.63;;;21.00;99.90;;;;;;5013271;28;20109;-76
2021/06/16 00:04:43;;;;;;;16.90;9.48;;;21.00;99.90;;;;;;5012747;28;20105;-76
2021/06/16 00:07:09;;;;;;;15.70;9.45;;;21.00;99.90;;;;;;5012954;28;20104;-76
2021/06/16 00:09:36;;;;;;;15.65;8.25;;;21.00;99.90;;;;;;5013126;28;20022;-76
2021/06/16 00:12:02;;;;;;;14.63;8.43;;;21.00;99.90;;;;;;5012848;28;20018;-76
2021/06/16 00:14:28;;;;;;;15.55;8.82;;;21.00;99.90;;;;;;4995518;28;20033;-75
2021/06/16 00:16:54;;;;;;;19.17;9.57;;;21.00;99.90;;;;;;5012691;28;20030;-76
2021/06/16 00:19:19;;;;;;;15.07;7.95;;;21.00;99.90;;;;;;5020326;28;20234;-76
2021/06/16 00:21:45;;;;;;;17.25;8.80;;;21.00;99.90;;;;;;5019284;28;20173;-76
2021/06/16 00:24:11;;;;;;;20.08;8.93;;;21.00;99.90;;;;;;5012662;28;20101;-76
2021/06/16 00:26:37;;;;;;;22.38;8.65;;;21.00;99.90;;;;;;5012699;28;20464;-76
2021/06/16 00:29:03;;;;;;;11.10;7.63;;;21.00;99.90;;;;;;5012610;28;20025;-75
2021/06/16 00:31:29;;;;;;;14.30;8.27;;;21.10;99.90;;;;;;5012455;28;20426;-76
2021/06/16 00:33:54;;;;;;;18.30;8.02;;;21.00;99.90;;;;;;5012449;28;20021;-79
2021/06/16 00:36:20;;;;;;;16.52;8.40;;;21.00;99.90;;;;;;5012469;28;20104;-79
2021/06/16 00:38:46;;;;;;;23.50;8.50;;;21.10;99.90;;;;;;5012774;28;20593;-80
2021/06/16 00:41:12;;;;;;;14.00;8.82;;;21.10;99.90;;;;;;4994550;28;20032;-77
2021/06/16 00:43:38;;;;;;;17.48;8.55;;;21.10;99.90;;;;;;5011832;28;20026;-80
2021/06/16 00:46:04;;;;;;;11.73;7.82;;;21.10;99.90;;;;;;5012210;28;20036;-76
2021/06/16 00:48:30;;;;;;;18.33;8.13;;;21.10;99.90;;;;;;5012552;28;20022;-77
2021/06/16 00:50:56;;;;;;;20.70;9.13;;;21.10;99.90;;;;;;5011736;28;20042;-78
2021/06/16 00:53:21;;;;;;;13.85;8.20;;;21.10;99.90;;;;;;5012125;28;20030;-76
2021/06/16 00:55:47;;;;;;;13.85;8.57;;;21.10;99.90;;;;;;5012312;28;20084;-77
2021/06/16 00:58:13;;;;;;;21.80;7.47;;;21.10;99.90;;;;;;5012096;28;20037;-76
2021/06/16 01:00:58;;;;;;;21.30;8.45;;;21.10;99.90;;;;;;5012317;28;20359;-76
2021/06/16 01:03:42;;;;;;;17.08;8.30;;;21.20;99.90;;;;;;5012212;28;20030;-77
2021/06/16 01:06:26;;;;;;;15.98;8.38;;;21.20;99.90;;;;;;5012196;28;20025;-76
2021/06/16 01:09:17;;;;;;;17.17;8.15;;;21.20;99.90;;;;;;5012191;28;20064;-77
2021/06/16 01:12:03;;;;;;;19.42;9.18;;;21.20;99.90;;;;;;5012272;28;20021;-76
2021/06/16 01:14:46;;;;;;;15.18;8.25;;;21.10;99.90;;;;;;5012335;28;20030;-76
2021/06/16 01:17:19;;;;;;;19.08;8.18;;;21.10;99.90;;;;;;5012105;28;20034;-76
2021/06/16 01:19:59;;;;;;;17.73;7.50;;;21.10;99.90;;;;;;5012416;28;20025;-75
2021/06/16 01:22:59;;;;;;;19.05;9.30;;;21.10;99.90;;;;;;5011891;28;20048;-76
2021/06/16 01:25:34;;;;;;;14.68;8.43;;;21.10;99.90;;;;;;5025657;28;20108;-75
2021/06/16 01:28:00;;;;;;;18.92;9.80;;;21.10;99.90;;;;;;5011726;28;20045;-77
2021/06/16 01:30:29;;;;;;;16.73;9.10;;;21.10;99.90;;;;;;5011669;28;20074;-76
2021/06/16 01:32:57;;;;;;;17.58;8.23;;;21.10;99.90;;;;;;5011667;28;20108;-75
2021/06/16 01:35:27;;;;;;;15.52;8.90;;;21.00;99.90;;;;;;5011995;28;20026;-76
2021/06/16 01:37:54;;;;;;;14.13;8.82;;;21.00;99.90;;;;;;5011916;28;20466;-76
2021/06/16 01:40:22;;;;;;;19.70;9.23;;;21.00;99.90;;;;;;5011413;28;20029;-77
2021/06/16 01:42:50;;;;;;;22.77;8.48;;;21.00;99.90;;;;;;5011438;28;20013;-75
2021/06/16 01:45:17;;;;;;;13.77;8.35;;;21.00;99.90;;;;;;5011603;28;20109;-75
2021/06/16 01:47:44;;;;;;;26.63;8.90;;;21.00;99.90;;;;;;5011523;28;20081;-76
2021/06/16 01:50:12;;;;;;;16.60;8.75;;;20.90;99.90;;;;;;5011915;28;20046;-76
2021/06/16 01:52:39;;;;;;;10.93;8.20;;;20.90;99.90;;;;;;5011746;28;20459;-76
2021/06/16 01:55:07;;;;;;;13.88;8.18;;;20.90;99.90;;;;;;5015259;28;20041;-76
2021/06/16 01:57:35;;;;;;;18.02;8.82;;;20.90;99.90;;;;;;4998112;28;20076;-76
2021/06/16 02:00:03;;;;;;;21.98;9.77;;;20.80;99.90;;;;;;5015359;28;20018;-76
2021/06/16 02:02:30;;;;;;;17.17;8.82;;;20.80;99.90;;;;;;5015211;28;20109;-76
2021/06/16 02:04:57;;;;;;;23.27;9.35;;;20.80;99.90;;;;;;5015210;28;20022;-76
2021/06/16 02:07:28;;;;;;;16.25;8.85;;;20.80;99.90;;;;;;5015025;28;20021;-76
2021/06/16 02:09:55;;;;;;;16.27;9.63;;;20.80;99.90;;;;;;5015664;28;20073;-76
2021/06/16 02:12:21;;;;;;;13.13;8.68;;;20.80;99.90;;;;;;5015095;28;20026;-76
2021/06/16 02:14:55;;;;;;;17.65;8.65;;;20.80;99.90;;;;;;5014831;28;20144;-76
2021/06/16 02:17:21;;;;;;;17.58;9.88;;;20.80;99.90;;;;;;5014918;28;20029;-76
2021/06/16 02:19:48;;;;;;;12.38;8.50;;;20.80;99.90;;;;;;4997563;28;20057;-75
2021/06/16 02:22:15;;;;;;;13.20;8.63;;;20.80;99.90;;;;;;5014596;28;20390;-75
2021/06/16 02:24:43;;;;;;;15.70;9.30;;;20.70;99.90;;;;;;5014899;28;20026;-76
2021/06/16 02:27:09;;;;;;;21.17;9.40;;;20.70;99.90;;;;;;5014589;28;20406;-76
2021/06/16 02:29:35;;;;;;;15.68;8.77;;;20.70;99.90;;;;;;5015004;28;20022;-76
2021/06/16 02:32:01;;;;;;;17.25;9.48;;;20.70;99.90;;;;;;5014848;28;20097;-74
2021/06/16 02:34:29;;;;;;;15.95;9.43;;;20.70;99.90;;;;;;5014580;28;20026;-75
2021/06/16 02:36:58;;;;;;;15.88;9.48;;;20.80;99.90;;;;;;5014695;28;20210;-75
2021/06/16 02:39:38;;;;;;;13.77;9.13;;;20.70;99.90;;;;;;5014310;28;20037;-75
2021/06/16 02:42:07;;;;;;;14.13;9.07;;;20.70;99.90;;;;;;5013223;28;20655;-75
2021/06/16 02:44:34;;;;;;;13.40;8.60;;;20.70;99.90;;;;;;5014050;28;20076;-75
2021/06/16 02:47:00;;;;;;;23.42;9.02;;;20.70;99.90;;;;;;5013892;28;20057;-75
2021/06/16 02:49:36;;;;;;;13.35;7.97;;;20.70;99.90;;;;;;5013555;28;20050;-75
2021/06/16 02:52:04;;;;;;;19.30;8.93;;;20.60;99.90;;;;;;5013750;28;20033;-75
2021/06/16 02:54:31;;;;;;;14.38;8.88;;;20.60;99.90;;;;;;5014239;28;20032;-75
2021/06/16 02:57:01;;;;;;;14.23;9.27;;;20.60;99.90;;;;;;5013813;28;20045;-75
2021/06/16 02:59:29;;;;;;;15.80;9.60;;;20.60;99.90;;;;;;5013772;28;20036;-75
2021/06/16 03:01:55;;;;;;;24.85;9.50;;;20.70;99.90;;;;;;5013455;28;20026;-75
2021/06/16 03:04:22;;;;;;;21.10;9.45;;;20.60;99.90;;;;;;5013436;28;20034;-76
2021/06/16 03:06:50;;;;;;;24.17;9.65;;;20.60;99.90;;;;;;5013401;28;20014;-76
2021/06/16 03:09:19;;;;;;;16.77;9.00;;;20.60;99.90;;;;;;5013719;28;20025;-76
2021/06/16 03:11:46;;;;;;;15.80;9.15;;;20.60;99.90;;;;;;5013803;28;20080;-78
2021/06/16 03:14:12;;;;;;;19.10;9.48;;;20.60;99.90;;;;;;5013700;28;20036;-78
2021/06/16 03:16:40;;;;;;;19.60;9.00;;;20.60;99.90;;;;;;5013452;28;20030;-77
2021/06/16 03:19:07;;;;;;;14.95;9.35;;;20.60;99.90;;;;;;5013412;28;20109;-79
2021/06/16 03:21:34;;;;;;;32.00;10.55;;;20.60;99.90;;;;;;5013644;28;20065;-78
2021/06/16 03:24:01;;;;;;;15.90;9.00;;;20.60;99.90;;;;;;5013461;28;20026;-79
2021/06/16 03:26:28;;;;;;;15.20;9.77;;;20.60;99.90;;;;;;5013313;28;20022;-78
2021/06/16 03:28:55;;;;;;;14.25;9.63;;;20.60;99.90;;;;;;5013359;28;20057;-79
2021/06/16 03:31:21;;;;;;;18.50;9.73;;;20.60;99.90;;;;;;5013129;28;20044;-78
2021/06/16 03:33:48;;;;;;;16.08;8.52;;;20.60;99.90;;;;;;5013440;28;20382;-77
2021/06/16 03:36:15;;;;;;;40.08;9.98;;;20.60;99.90;;;;;;5013175;28;20088;-78
2021/06/16 03:38:43;;;;;;;17.00;9.93;;;20.70;99.90;;;;;;5013374;28;20101;-78
2021/06/16 03:41:10;;;;;;;18.40;10.00;;;20.80;99.90;;;;;;5012664;28;20101;-79
2021/06/16 03:43:37;;;;;;;18.92;9.77;;;20.80;99.90;;;;;;5013099;28;20022;-79
2021/06/16 03:46:05;;;;;;;19.83;10.45;;;20.80;99.90;;;;;;5012907;28;20021;-76
2021/06/16 03:48:32;;;;;;;25.63;9.43;;;20.80;99.90;;;;;;5013209;28;20025;-79
2021/06/16 03:50:59;;;;;;;14.57;9.63;;;20.80;99.90;;;;;;5012949;28;20042;-78
2021/06/16 03:53:25;;;;;;;19.92;10.00;;;20.80;99.90;;;;;;5012800;28;20021;-79
2021/06/16 03:55:51;;;;;;;16.58;10.48;;;20.80;99.90;;;;;;5012843;28;20038;-77
2021/06/16 03:58:18;;;;;;;20.75;10.70;;;20.90;99.90;;;;;;5012602;28;20037;-76
2021/06/16 04:00:44;;;;;;;15.32;9.20;;;21.00;99.90;;;;;;5012759;28;20022;-77
2021/06/16 04:03:12;;;;;;;17.83;9.35;;;21.10;99.90;;;;;;5012422;28;20038;-77
2021/06/16 04:05:38;;;;;;;16.98;9.70;;;21.20;99.90;;;;;;5012092;28;20021;-79
2021/06/16 04:08:06;;;;;;;17.90;9.40;;;21.30;99.90;;;;;;5012205;28;20022;-78
2021/06/16 04:10:32;;;;;;;23.65;10.77;;;21.30;99.90;;;;;;5012574;28;20109;-78
2021/06/16 04:12:58;;;;;;;12.57;9.52;;;21.50;99.90;;;;;;5012703;28;20049;-77
2021/06/16 04:15:24;;;;;;;16.27;8.85;;;21.60;99.90;;;;;;5012187;28;20470;-77
2021/06/16 04:17:53;;;;;;;22.08;10.18;;;21.60;99.90;;;;;;5012420;28;20093;-76
2021/06/16 04:20:19;;;;;;;18.05;10.00;;;21.70;99.90;;;;;;5012299;28;20022;-75
2021/06/16 04:22:45;;;;;;;17.25;9.43;;;21.80;99.90;;;;;;4994429;28;20038;-76
2021/06/16 04:25:11;;;;;;;16.27;9.40;;;22.00;99.90;;;;;;5011821;28;20116;-79
2021/06/16 04:27:37;;;;;;;18.92;9.82;;;22.10;99.90;;;;;;5011480;28;20435;-76
2021/06/16 04:30:06;;;;;;;35.10;10.00;;;22.20;99.90;;;;;;5012376;28;20065;-78
2021/06/16 04:32:32;;;;;;;16.15;9.68;;;22.40;99.90;;;;;;5012042;28;20399;-80
2021/06/16 04:34:57;;;;;;;16.00;9.02;;;22.40;99.90;;;;;;5011936;28;20090;-77
2021/06/16 04:37:23;;;;;;;14.73;9.40;;;22.50;99.90;;;;;;5011528;28;20117;-77
2021/06/16 04:39:49;;;;;;;15.23;9.75;;;22.50;99.90;;;;;;5012273;28;20652;-79
2021/06/16 04:42:14;;;;;;;19.45;9.00;;;22.70;99.90;;;;;;5012103;28;20025;-79
2021/06/16 04:44:40;;;;;;;16.92;9.95;;;22.80;99.90;;;;;;5012459;28;20025;-77
2021/06/16 04:47:06;;;;;;;18.88;9.52;;;22.90;99.90;;;;;;5012654;28;20026;-77
2021/06/16 04:49:33;;;;;;;12.85;9.02;;;23.10;99.90;;;;;;5011666;28;20395;-77
2021/06/16 04:51:59;;;;;;;16.95;8.70;;;23.20;99.90;;;;;;5011106;28;20029;-76
2021/06/16 04:54:24;;;;;;;21.75;9.73;;;23.40;99.90;;;;;;5012291;28;20018;-78
2021/06/16 04:56:50;;;;;;;16.80;9.48;;;23.90;99.90;;;;;;5011942;28;20026;-79
2021/06/16 04:59:16;;;;;;;19.25;8.80;;;24.40;99.90;;;;;;5012138;28;20108;-80
2021/06/16 05:01:41;;;;;;;29.88;9.25;;;25.10;99.90;;;;;;5011824;28;20030;-79
2021/06/16 05:04:07;;;;;;;25.10;10.00;;;25.80;99.90;;;;;;5012299;28;20032;-78
2021/06/16 05:06:33;;;;;;;15.50;8.85;;;26.50;99.90;;;;;;5012125;28;20026;-76
2021/06/16 05:08:59;;;;;;;20.80;10.05;;;26.80;99.90;;;;;;5012247;28;20105;-78
2021/06/16 05:11:25;;;;;;;19.58;8.82;;;27.00;99.90;;;;;;5011726;28;20122;-76
2021/06/16 05:13:50;;;;;;;18.45;9.40;;;26.80;99.90;;;;;;5011630;28;20030;-79
2021/06/16 05:16:16;;;;;;;21.20;9.07;;;26.70;99.90;;;;;;5011718;28;20038;-76
2021/06/16 05:18:45;;;;;;;20.65;9.18;;;26.70;99.90;;;;;;5011644;28;20034;-76
2021/06/16 05:21:12;;;;;;;13.38;8.48;;;27.10;99.90;;;;;;5011598;28;20022;-77
2021/06/16 05:23:38;;;;;;;16.80;9.07;;;27.50;99.90;;;;;;5011162;28;20497;-77
2021/06/16 05:26:04;;;;;;;16.42;8.95;;;27.60;99.90;;;;;;5012453;28;20022;-76
2021/06/16 05:28:30;;;;;;;14.93;8.50;;;27.80;99.90;;;;;;5013391;28;20029;-77
2021/06/16 05:30:56;;;;;;;17.95;8.00;;;28.20;99.90;;;;;;5015794;28;20033;-77
2021/06/16 05:33:21;;;;;;;13.77;8.48;;;28.70;99.90;;;;;;5015668;28;20033;-77
2021/06/16 05:35:47;;;;;;;15.48;7.22;;;29.60;99.90;;;;;;5016173;28;20033;-77
2021/06/16 05:38:13;;;;;;;15.45;7.85;;;30.20;99.90;;;;;;5016202;28;20026;-77
2021/06/16 05:40:39;;;;;;;21.67;7.03;;;30.40;99.90;;;;;;5015679;28;20430;-79
2021/06/16 05:43:05;;;;;;;18.00;8.23;;;30.50;99.90;;;;;;5015826;28;20014;-77
2021/06/16 05:45:30;;;;;;;26.27;8.60;;;31.10;99.90;;;;;;5015637;28;20432;-80
2021/06/16 05:47:56;;;;;;;22.13;7.35;;;31.20;99.90;;;;;;5016052;28;20030;-77
2021/06/16 05:50:23;;;;;;;37.95;9.65;;;30.80;99.90;;;;;;5015231;28;20121;-78
2021/06/16 05:52:49;;;;;;;23.65;8.02;;;30.70;99.90;;;;;;5015558;28;20022;-79
2021/06/16 05:55:15;;;;;;;31.23;9.20;;;31.00;99.90;;;;;;5015671;28;20038;-77
2021/06/16 05:57:41;;;;;;;37.30;8.63;;;31.30;99.90;;;;;;5015351;28;20014;-78
2021/06/16 06:00:09;;;;;;;37.83;9.25;;;31.50;99.90;;;;;;5015827;28;20026;-77
2021/06/16 06:02:35;;;;;;;33.95;8.52;;;31.10;99.90;;;;;;5015297;28;20017;-77
2021/06/16 06:05:00;;;;;;;34.38;8.90;;;30.50;99.90;;;;;;5015353;28;20370;-77
2021/06/16 06:07:26;;;;;;;38.10;9.40;;;30.00;99.90;;;;;;5015287;28;20045;-76
2021/06/16 06:09:52;;;;;;;36.13;9.25;;;29.60;99.90;;;;;;5015894;28;20100;-77
2021/06/16 06:12:18;;;;;;;28.02;9.68;;;29.30;99.90;;;;;;4997570;28;20391;-77
2021/06/16 06:14:43;;;;;;;31.92;9.23;;;29.00;99.90;;;;;;5015135;28;20097;-77
2021/06/16 06:17:10;;;;;;;35.80;8.77;;;28.70;99.90;;;;;;5015239;28;20026;-77
2021/06/16 06:19:36;;;;;;;32.70;9.48;;;28.50;99.90;;;;;;5015137;28;20128;-77
2021/06/16 06:22:02;;;;;;;44.88;10.32;;;28.60;99.90;;;;;;5015605;28;20118;-78
2021/06/16 06:24:27;;;;;;;45.05;9.82;;;28.80;99.90;;;;;;5014799;28;20468;-77
2021/06/16 06:26:53;;;;;;;52.28;10.13;;;28.70;99.90;;;;;;5015242;28;20026;-77
2021/06/16 06:29:19;;;;;;;48.30;10.75;;;28.60;99.90;;;;;;5014983;28;20498;-77
2021/06/16 06:31:45;;;;;;;59.55;13.45;;;28.70;99.90;;;;;;5014173;28;20022;-77
2021/06/16 06:34:11;;;;;;;62.08;14.02;;;28.80;99.90;;;;;;4997153;28;20104;-77
2021/06/16 06:36:36;;;;;;;49.13;12.77;;;28.70;99.90;;;;;;5014373;28;20546;-76
2021/06/16 06:39:03;;;;;;;37.75;13.38;;;28.70;99.90;;;;;;5014770;28;20030;-76
2021/06/16 06:41:29;;;;;;;58.03;12.98;;;28.60;99.90;;;;;;5013556;28;20026;-75
2021/06/16 06:43:55;;;;;;;51.35;12.40;;;28.50;99.90;;;;;;5001178;28;20022;-76
2021/06/16 06:46:21;;;;;;;58.47;12.40;;;28.50;99.90;;;;;;5014215;28;20409;-76
2021/06/16 06:48:47;;;;;;;57.47;9.90;;;28.60;99.90;;;;;;4996745;28;20018;-76
2021/06/16 06:51:12;;;;;;;67.22;12.25;;;28.80;99.90;;;;;;5014850;28;20390;-76
2021/06/16 06:53:38;;;;;;;64.30;10.65;;;29.00;99.90;;;;;;5014568;28;20026;-76
2021/06/16 06:56:04;;;;;;;45.35;10.18;;;29.40;99.90;;;;;;5014645;28;20030;-76
2021/06/16 06:58:30;;;;;;;48.95;9.85;;;29.50;99.90;;;;;;5014488;28;20098;-77
2021/06/16 07:00:56;;;;;;;44.17;10.85;;;29.60;99.90;;;;;;5014471;28;20096;-76
2021/06/16 07:03:22;;;;;;;41.50;10.25;;;29.70;99.90;;;;;;5014327;28;20037;-77
2021/06/16 07:05:47;;;;;;;70.57;11.85;;;29.70;99.90;;;;;;5014212;28;20030;-76
2021/06/16 07:08:13;;;;;;;76.63;11.38;;;29.60;99.90;;;;;;5014089;28;20030;-77
2021/06/16 07:10:39;;;;;;;44.60;10.55;;;29.60;99.90;;;;;;4996421;28;20489;-77
2021/06/16 07:13:05;;;;;;;43.20;9.63;;;29.60;99.90;;;;;;5014348;28;20046;-76
2021/06/16 07:15:31;;;;;;;49.80;10.93;;;29.80;99.90;;;;;;5013794;28;20034;-77
2021/06/16 07:17:58;;;;;;;86.18;10.63;;;30.20;99.90;;;;;;5014133;28;20026;-77
2021/06/16 07:20:24;;;;;;;41.60;9.65;;;30.40;99.90;;;;;;5013788;28;20022;-77
2021/06/16 07:22:50;;;;;;;30.83;8.88;;;30.60;99.90;;;;;;5013710;28;20057;-77
2021/06/16 07:25:17;;;;;;;34.90;9.27;;;30.80;99.90;;;;;;5014037;28;20057;-76
2021/06/16 07:27:45;;;;;;;25.60;10.15;;;31.00;99.90;;;;;;5013960;28;20489;-76
2021/06/16 07:30:11;;;;;;;33.03;8.57;;;31.20;99.90;;;;;;5012486;28;20018;-77
2021/06/16 07:32:37;;;;;;;29.15;10.07;;;31.20;99.90;;;;;;5002003;28;20049;-77
2021/06/16 07:35:04;;;;;;;23.30;8.93;;;31.30;99.90;;;;;;5011556;28;20486;-77
2021/06/16 07:37:30;;;;;;;22.95;8.82;;;31.30;99.90;;;;;;5008961;28;20034;-74
2021/06/16 07:39:55;;;;;;;23.48;9.60;;;31.30;99.90;;;;;;5013456;28;20021;-76
2021/06/16 07:42:22;;;;;;;20.05;10.57;;;31.50;99.90;;;;;;5012653;28;20032;-77
2021/06/16 07:44:48;;;;;;;21.63;8.32;;;31.50;99.90;;;;;;5008787;28;20025;-77
2021/06/16 07:47:13;;;;;;;19.77;8.68;;;31.50;99.90;;;;;;5010969;28;20026;-76
2021/06/16 07:49:39;;;;;;;21.85;8.15;;;31.60;99.90;;;;;;5012684;28;20061;-77
2021/06/16 07:52:06;;;;;;;25.63;8.57;;;31.70;99.90;;;;;;5012508;28;20018;-77
2021/06/16 07:54:32;;;;;;;23.15;7.90;;;31.70;99.90;;;;;;5013156;28;20418;-77
2021/06/16 07:56:57;;;;;;;19.60;8.38;;;31.50;99.90;;;;;;5012635;28;20030;-77
2021/06/16 07:59:23;;;;;;;22.23;8.38;;;31.30;99.90;;;;;;5012184;28;20026;-77
2021/06/16 08:01:49;;;;;;;27.67;8.73;;;31.30;99.90;;;;;;5012473;28;20022;-77
2021/06/16 08:04:15;;;;;;;21.60;8.27;;;31.30;99.90;;;;;;5012074;28;20032;-77
2021/06/16 08:06:41;;;;;;;12.63;7.50;;;31.30;99.90;;;;;;5010716;28;20060;-76
2021/06/16 08:09:07;;;;;;;25.42;8.60;;;31.30;99.90;;;;;;5009162;28;20526;-77
2021/06/16 08:11:33;;;;;;;16.35;7.43;;;31.40;99.90;;;;;;5010940;28;20022;-77
2021/06/16 08:13:59;;;;;;;18.40;7.88;;;31.30;99.90;;;;;;5010875;28;20068;-76
2021/06/16 08:16:25;;;;;;;18.90;8.77;;;31.30;99.90;;;;;;5011908;28;20033;-76
2021/06/16 08:18:52;;;;;;;18.05;7.68;;;31.20;99.90;;;;;;5012232;28;20022;-76
2021/06/16 08:21:19;;;;;;;24.73;8.15;;;31.00;99.90;;;;;;5012109;28;20477;-76
2021/06/16 08:23:45;;;;;;;18.20;7.82;;;30.80;99.90;;;;;;4993742;28;20057;-76
2021/06/16 08:26:11;;;;;;;15.75;8.57;;;30.70;99.90;;;;;;5013064;28;20033;-77
2021/06/16 08:28:38;;;;;;;16.08;7.82;;;30.70;99.90;;;;;;5011257;28;20025;-76
2021/06/16 08:31:04;;;;;;;21.15;8.70;;;30.60;99.90;;;;;;5011371;28;20076;-77
2021/06/16 08:33:30;;;;;;;18.98;7.45;;;30.50;99.90;;;;;;5010395;28;20052;-77
2021/06/16 08:35:56;;;;;;;15.77;7.57;;;30.40;99.90;;;;;;5012168;28;20037;-77
2021/06/16 08:38:21;;;;;;;17.05;8.63;;;30.50;99.90;;;;;;5011938;28;20041;-77
2021/06/16 08:40:48;;;;;;;18.52;8.10;;;30.50;99.90;;;;;;5011719;28;20109;-77
2021/06/16 08:43:13;;;;;;;17.15;8.07;;;30.60;99.90;;;;;;4993479;28;20511;-76
2021/06/16 08:45:41;;;;;;;26.05;9.35;;;30.60;99.90;;;;;;5009228;28;20021;-76
2021/06/16 08:48:07;;;;;;;15.65;8.43;;;30.50;99.90;;;;;;5011854;28;20053;-77
2021/06/16 08:50:33;;;;;;;21.27;8.02;;;30.50;99.90;;;;;;5009900;28;20615;-77
2021/06/16 08:52:59;;;;;;;20.42;8.38;;;30.60;99.90;;;;;;5011639;28;20026;-76
2021/06/16 08:55:25;;;;;;;19.00;8.40;;;30.70;99.90;;;;;;5010672;28;20030;-76
2021/06/16 08:57:51;;;;;;;10.95;7.43;;;30.60;99.90;;;;;;5010208;28;20101;-77
2021/06/16 09:00:18;;;;;;;17.13;8.70;;;30.50;99.90;;;;;;4999676;28;20066;-77
2021/06/16 09:02:44;;;;;;;18.48;8.85;;;30.40;99.90;;;;;;5011295;28;20033;-78
2021/06/16 09:05:11;;;;;;;19.15;9.25;;;30.40;99.90;;;;;;5012387;28;20032;-77
2021/06/16 09:07:39;;;;;;;17.52;8.98;;;30.40;99.90;;;;;;5012326;28;20021;-77
2021/06/16 09:10:08;;;;;;;18.52;7.95;;;30.40;99.90;;;;;;5012079;28;20037;-77
2021/06/16 09:12:38;;;;;;;20.92;8.60;;;30.60;99.90;;;;;;5012088;28;20382;-77
2021/06/16 09:15:14;;;;;;;16.90;8.27;;;30.70;99.90;;;;;;5011521;28;20028;-76
2021/06/16 09:17:40;;;;;;;14.65;7.45;;;30.70;99.90;;;;;;5011194;28;20033;-77
2021/06/16 09:20:07;;;;;;;18.67;8.35;;;30.80;99.90;;;;;;5012258;28;20061;-77
2021/06/16 09:22:38;;;;;;;13.68;7.40;;;30.60;99.90;;;;;;5011915;28;20368;-76
2021/06/16 09:25:07;;;;;;;28.73;8.40;;;30.50;99.90;;;;;;4994520;28;20042;-77
2021/06/16 09:27:50;;;;;;;16.98;8.45;;;30.70;99.90;;;;;;5009115;28;20117;-76
2021/06/16 09:30:19;;;;;;;21.48;7.80;;;30.60;99.90;;;;;;5000685;28;20018;-76
2021/06/16 09:32:47;;;;;;;15.35;8.27;;;30.70;99.90;;;;;;5011002;28;20022;-76
2021/06/16 09:35:40;;;;;;;17.33;7.95;;;30.50;99.90;;;;;;5011008;28;20121;-76
2021/06/16 09:38:13;;;;;;;18.00;8.07;;;30.50;99.90;;;;;;5012016;28;20026;-76
2021/06/16 09:40:45;;;;;;;22.30;7.90;;;30.70;99.90;;;;;;5009836;28;20493;-76
2021/06/16 09:43:16;;;;;;;23.15;7.18;;;30.80;99.90;;;;;;5010661;28;20113;-76
2021/06/16 09:45:44;;;;;;;;;;;31.00;99.90;;;;;;5000861;28;20069;-76
2021/06/16 09:48:28;;;;;;;23.63;7.38;;;31.00;99.90;;;;;;5011532;28;19916;-76
2021/06/16 09:51:08;;;;;;;12.25;7.78;;;30.80;99.90;;;;;;5000170;28;20044;-76
2021/06/16 09:53:50;;;;;;;19.90;7.90;;;30.70;99.90;;;;;;5009170;28;20026;-76
2021/06/16 09:56:16;;;;;;;18.23;8.20;;;30.50;99.90;;;;;;5011926;28;20041;-76
2021/06/16 09:58:42;;;;;;;12.25;7.65;;;30.40;99.90;;;;;;5010536;28;20022;-77
2021/06/16 10:01:08;;;;;;;22.52;9.15;;;30.30;99.90;;;;;;5011694;28;20026;-77
2021/06/16 10:03:34;;;;;;;24.27;9.40;;;30.20;99.90;;;;;;5011489;28;20026;-76
2021/06/16 10:06:06;;;;;;;37.83;12.63;;;30.10;99.90;;;;;;5011658;28;20022;-76
2021/06/16 10:08:34;;;;;;;20.38;7.78;;;30.10;99.90;;;;;;5011674;28;20049;-76
2021/06/16 10:11:00;;;;;;;36.63;9.70;;;29.90;99.90;;;;;;5011525;28;20029;-76
2021/06/16 10:13:26;;;;;;;14.05;7.75;;;29.90;99.90;;;;;;4993971;28;20060;-76
2021/06/16 10:15:57;;;;;;;13.25;7.47;;;29.80;99.90;;;;;;4996726;28;20033;-76
2021/06/16 10:18:24;;;;;;;12.73;7.35;;;29.80;99.90;;;;;;5013956;28;20050;-76
2021/06/16 10:20:55;;;;;;;27.73;8.07;;;29.80;99.90;;;;;;5012570;28;20483;-76
2021/06/16 10:23:21;;;;;;;14.98;8.63;;;30.00;99.90;;;;;;5002966;28;20030;-77
2021/06/16 10:25:47;;;;;;;13.75;7.93;;;30.00;99.90;;;;;;4994739;28;20056;-76
2021/06/16 10:28:18;;;;;;;17.20;8.52;;;29.90;99.90;;;;;;5012710;28;20057;-78
2021/06/16 10:30:44;;;;;;;14.30;8.40;;;29.80;99.90;;;;;;5014646;28;20021;-77
2021/06/16 10:33:37;;;;;;;14.02;7.80;;;29.80;99.90;;;;;;5015013;28;20156;-77
2021/06/16 10:36:15;;;;;;;19.83;7.07;;;29.80;99.90;;;;;;5022334;28;20128;-77
2021/06/16 10:39:00;;;;;;;8.57;6.40;;;29.80;99.90;;;;;;5015608;28;20068;-77
2021/06/16 10:41:38;;;;;;;15.95;7.30;;;29.80;99.90;;;;;;5013323;28;20116;-76
2021/06/16 10:44:19;;;;;;;15.07;6.97;;;29.90;99.90;;;;;;5009143;28;20049;-77
2021/06/16 10:47:05;;;;;;;14.65;6.75;;;29.90;99.90;;;;;;5013739;28;20022;-77
2021/06/16 10:49:41;;;;;;;12.88;6.88;;;29.90;99.90;;;;;;5009579;28;20073;-77
2021/06/16 10:52:08;;;;;;;13.73;6.88;;;30.00;99.90;;;;;;5012812;28;20033;-78
2021/06/16 10:54:34;;;;;;;12.68;6.40;;;30.10;99.90;;;;;;5013758;28;20014;-77
2021/06/16 10:57:12;;;;;;;11.73;6.95;;;30.10;99.90;;;;;;5012692;28;20034;-77
2021/06/16 10:59:44;;;;;;;16.45;6.65;;;30.10;99.90;;;;;;5013137;28;20025;-77
2021/06/16 11:02:11;;;;;;;28.90;8.90;;;30.20;99.90;;;;;;5015749;28;20093;-77
2021/06/16 11:04:38;;;;;;;9.93;7.53;;;30.30;99.90;;;;;;5013751;28;20032;-76
2021/06/16 11:07:24;;;;;;;16.27;8.18;;;30.40;99.90;;;;;;5013651;28;20148;-77
2021/06/16 11:09:55;;;;;;;15.35;9.30;;;30.30;99.90;;;;;;5012096;28;20037;-77
2021/06/16 11:12:40;;;;;;;13.98;8.00;;;30.30;99.90;;;;;;5012135;28;20100;-77
2021/06/16 11:15:08;;;;;;;15.88;7.72;;;30.20;99.90;;;;;;5013629;28;20022;-77
2021/06/16 11:17:33;;;;;;;16.02;8.30;;;30.10;99.90;;;;;;5009645;28;20022;-76
2021/06/16 11:20:02;;;;;;;15.98;8.25;;;30.10;99.90;;;;;;5012378;28;20022;-76
2021/06/16 11:22:28;;;;;;;16.13;8.30;;;30.00;99.90;;;;;;5012340;28;20061;-78
2021/06/16 11:25:13;;;;;;;18.00;8.40;;;29.90;99.90;;;;;;5012434;28;20099;-78
2021/06/16 11:27:54;;;;;;;20.30;8.25;;;29.90;99.90;;;;;;5011544;28;20021;-78
2021/06/16 11:30:33;;;;;;;13.55;7.72;;;29.90;99.90;;;;;;5012599;28;20029;-79
2021/06/16 11:35:52;;;;;;;13.73;8.35;;;29.90;99.90;;;;;;5011422;28;20442;-78
2021/06/16 11:38:17;;;;;;;20.40;8.80;;;30.00;99.90;;;;;;5012400;28;20053;-78
2021/06/16 11:41:00;;;;;;;19.77;8.13;;;29.90;99.90;;;;;;5012560;28;20050;-79
2021/06/16 11:43:32;;;;;;;16.02;7.95;;;29.80;99.90;;;;;;5008569;28;20065;-79
2021/06/16 11:46:04;;;;;;;15.50;8.00;;;29.80;99.90;;;;;;5012329;28;20030;-79
2021/06/16 11:48:29;;;;;;;24.38;8.75;;;29.80;99.90;;;;;;5031567;23;20049;-80
2021/06/16 11:50:55;;;;;;;22.88;8.25;;;29.90;99.90;;;;;;4993078;28;20038;-80
2021/06/16 11:53:32;;;;;;;16.63;8.77;;;30.00;99.90;;;;;;4990239;28;20038;-79
2021/06/16 11:56:06;;;;;;;16.10;8.65;;;30.00;99.90;;;;;;4985177;28;20062;-77
2021/06/16 11:58:34;;;;;;;24.55;8.63;;;29.80;99.90;;;;;;4992835;28;20022;-79
2021/06/16 12:01:12;;;;;;;12.80;8.30;;;29.70;99.90;;;;;;4992987;28;20026;-79
2021/06/16 12:03:44;;;;;;;22.73;9.65;;;29.80;99.90;;;;;;4992876;28;20021;-79
2021/06/16 12:06:15;;;;;;;15.32;8.68;;;29.80;99.90;;;;;;4991419;28;20014;-79
2021/06/16 12:08:42;;;;;;;21.50;7.88;;;29.60;99.90;;;;;;4992602;28;20021;-79
2021/06/16 12:11:19;;;;;;;18.92;7.53;;;29.70;99.90;;;;;;4992622;28;20050;-79
2021/06/16 12:14:14;;;;;;;12.60;6.70;;;29.70;99.90;;;;;;4992746;28;20082;-79
2021/06/16 12:16:42;;;;;;;10.98;6.63;;;29.80;99.90;;;;;;4975294;28;20042;-79
2021/06/16 12:19:20;;;;;;;14.25;7.68;;;30.00;99.90;;;;;;4989798;28;20021;-80
2021/06/16 12:21:59;;;;;;;16.98;8.23;;;30.00;99.90;;;;;;4991121;28;20506;-79
2021/06/16 12:24:29;;;;;;;14.73;7.05;;;29.90;99.90;;;;;;4992199;28;20015;-80
2021/06/16 12:27:04;;;;;;;23.38;7.70;;;29.80;99.90;;;;;;4981986;28;20022;-79
2021/06/16 12:29:35;;;;;;;17.15;7.40;;;29.80;99.90;;;;;;4992460;28;20112;-79
2021/06/16 12:32:03;;;;;;;17.45;6.80;;;29.80;99.90;;;;;;4981609;28;20022;-78
2021/06/16 12:35:12;;;;;;;19.63;6.00;;;29.70;99.90;;;;;;4991526;28;20030;-78
2021/06/16 12:37:18;;;;;;;10.52;5.72;;;29.70;99.40;;;;;;4977178;28;20053;-80
2021/06/16 12:40:01;;;;;;;14.55;5.65;;;29.80;97.30;;;;;;4991444;28;20383;-78
2021/06/16 12:42:42;;;;;;;14.27;5.75;;;29.90;97.50;;;;;;4991202;28;20029;-76
2021/06/16 12:45:36;;;;;;;10.70;5.85;;;29.80;97.80;;;;;;4992401;28;20022;-80
2021/06/16 12:48:26;;;;;;;15.60;5.80;;;29.80;96.50;;;;;;4992601;28;20093;-78